sensor_id;sensor_type;location;lat;lon;timestamp;P1;durP1;ratioP1;P2;durP2;ratioP2
74044;SDS011;62389;51.412;5.436;2023-12-14T00:01:34;32.53;;;12.63;;
74044;SDS011;62389;51.412;5.436;2023-12-14T00:04:00;25.23;;;11.88;;
74044;SDS011;62389;51.412;5.436;2023-12-14T00:06:25;28.02;;;11.30;;
74044;SDS011;62389;51.412;5.436;2023-12-14T00:08:50;24.08;;;10.60;;
74044;SDS011;62389;51.412;5.436;2023-12-14T00:11:16;25.67;;;10.57;;
74044;SDS011;62389;51.412;5.436;2023-12-14T00:13:41;19.77;;;8.95;;
74044;SDS011;62389;51.412;5.436;2023-12-14T00:16:07;21.65;;;10.15;;
74044;SDS011;62389;51.412;5.436;2023-12-14T00:18:33;19.20;;;8.48;;
74044;SDS011;62389;51.412;5.436;2023-12-14T00:20:58;18.55;;;8.40;;
74044;SDS011;62389;51.412;5.436;2023-12-14T00:23:24;18.45;;;8.40;;
74044;SDS011;62389;51.412;5.436;2023-12-14T00:25:49;15.43;;;7.15;;
74044;SDS011;62389;51.412;5.436;2023-12-14T00:28:15;15.02;;;6.82;;
74044;SDS011;62389;51.412;5.436;2023-12-14T00:30:40;18.98;;;8.40;;
74044;SDS011;62389;51.412;5.436;2023-12-14T00:33:06;17.33;;;8.35;;
74044;SDS011;62389;51.412;5.436;2023-12-14T00:35:31;16.02;;;7.85;;
74044;SDS011;62389;51.412;5.436;2023-12-14T00:37:56;16.00;;;7.75;;
74044;SDS011;62389;51.412;5.436;2023-12-14T00:40:22;14.77;;;7.28;;
74044;SDS011;62389;51.412;5.436;2023-12-14T00:42:47;15.52;;;8.18;;
74044;SDS011;62389;51.412;5.436;2023-12-14T00:45:13;15.48;;;7.80;;
74044;SDS011;62389;51.412;5.436;2023-12-14T00:47:38;15.07;;;7.47;;
74044;SDS011;62389;51.412;5.436;2023-12-14T00:50:03;18.05;;;8.27;;
74044;SDS011;62389;51.412;5.436;2023-12-14T00:52:29;16.98;;;7.72;;
74044;SDS011;62389;51.412;5.436;2023-12-14T00:54:55;15.45;;;7.60;;
74044;SDS011;62389;51.412;5.436;2023-12-14T00:57:20;15.52;;;8.90;;
74044;SDS011;62389;51.412;5.436;2023-12-14T00:59:45;15.30;;;7.63;;
74044;SDS011;62389;51.412;5.436;2023-12-14T01:02:11;17.10;;;8.27;;
74044;SDS011;62389;51.412;5.436;2023-12-14T01:04:36;17.40;;;8.00;;
74044;SDS011;62389;51.412;5.436;2023-12-14T01:07:02;17.10;;;7.90;;
74044;SDS011;62389;51.412;5.436;2023-12-14T01:09:28;19.05;;;8.88;;
74044;SDS011;62389;51.412;5.436;2023-12-14T01:11:53;19.38;;;8.88;;
74044;SDS011;62389;51.412;5.436;2023-12-14T01:14:19;20.70;;;9.25;;
74044;SDS011;62389;51.412;5.436;2023-12-14T01:16:44;18.67;;;8.85;;
74044;SDS011;62389;51.412;5.436;2023-12-14T01:19:09;19.00;;;8.57;;
74044;SDS011;62389;51.412;5.436;2023-12-14T01:21:36;19.45;;;9.32;;
74044;SDS011;62389;51.412;5.436;2023-12-14T01:24:01;19.48;;;8.73;;
74044;SDS011;62389;51.412;5.436;2023-12-14T01:26:27;23.25;;;9.43;;
74044;SDS011;62389;51.412;5.436;2023-12-14T01:28:52;22.52;;;10.38;;
74044;SDS011;62389;51.412;5.436;2023-12-14T01:31:18;24.98;;;11.23;;
74044;SDS011;62389;51.412;5.436;2023-12-14T01:33:44;23.90;;;9.98;;
74044;SDS011;62389;51.412;5.436;2023-12-14T01:36:10;22.83;;;9.55;;
74044;SDS011;62389;51.412;5.436;2023-12-14T01:38:36;23.65;;;9.82;;
74044;SDS011;62389;51.412;5.436;2023-12-14T01:41:02;24.05;;;10.60;;
74044;SDS011;62389;51.412;5.436;2023-12-14T01:43:28;21.52;;;9.15;;
74044;SDS011;62389;51.412;5.436;2023-12-14T01:45:53;18.10;;;8.52;;
74044;SDS011;62389;51.412;5.436;2023-12-14T01:48:18;18.75;;;9.07;;
74044;SDS011;62389;51.412;5.436;2023-12-14T01:50:44;19.60;;;8.20;;
74044;SDS011;62389;51.412;5.436;2023-12-14T01:53:09;18.95;;;8.82;;
74044;SDS011;62389;51.412;5.436;2023-12-14T01:55:34;20.65;;;8.90;;
74044;SDS011;62389;51.412;5.436;2023-12-14T01:58:00;17.38;;;8.70;;
74044;SDS011;62389;51.412;5.436;2023-12-14T02:00:36;21.38;;;8.40;;
74044;SDS011;62389;51.412;5.436;2023-12-14T02:03:07;18.25;;;8.20;;
74044;SDS011;62389;51.412;5.436;2023-12-14T02:05:32;18.45;;;7.80;;
74044;SDS011;62389;51.412;5.436;2023-12-14T02:07:58;15.85;;;7.88;;
74044;SDS011;62389;51.412;5.436;2023-12-14T02:10:23;16.98;;;8.00;;
74044;SDS011;62389;51.412;5.436;2023-12-14T02:12:49;17.02;;;7.25;;
74044;SDS011;62389;51.412;5.436;2023-12-14T02:15:14;22.60;;;8.80;;
74044;SDS011;62389;51.412;5.436;2023-12-14T02:17:40;19.70;;;8.57;;
74044;SDS011;62389;51.412;5.436;2023-12-14T02:20:05;15.90;;;8.15;;
74044;SDS011;62389;51.412;5.436;2023-12-14T02:22:35;18.48;;;8.48;;
74044;SDS011;62389;51.412;5.436;2023-12-14T02:25:14;16.90;;;7.88;;
74044;SDS011;62389;51.412;5.436;2023-12-14T02:27:39;16.38;;;7.47;;
74044;SDS011;62389;51.412;5.436;2023-12-14T02:30:05;17.33;;;8.23;;
74044;SDS011;62389;51.412;5.436;2023-12-14T02:32:30;15.88;;;6.97;;
74044;SDS011;62389;51.412;5.436;2023-12-14T02:34:56;14.23;;;6.78;;
74044;SDS011;62389;51.412;5.436;2023-12-14T02:37:21;16.08;;;6.97;;
74044;SDS011;62389;51.412;5.436;2023-12-14T02:39:47;16.85;;;7.15;;
74044;SDS011;62389;51.412;5.436;2023-12-14T02:42:12;15.40;;;7.15;;
74044;SDS011;62389;51.412;5.436;2023-12-14T02:44:37;15.32;;;7.50;;
74044;SDS011;62389;51.412;5.436;2023-12-14T02:47:03;14.98;;;6.25;;
74044;SDS011;62389;51.412;5.436;2023-12-14T02:49:28;16.05;;;7.25;;
74044;SDS011;62389;51.412;5.436;2023-12-14T02:51:54;15.45;;;7.18;;
74044;SDS011;62389;51.412;5.436;2023-12-14T02:54:19;15.23;;;6.70;;
74044;SDS011;62389;51.412;5.436;2023-12-14T02:56:44;14.77;;;7.50;;
74044;SDS011;62389;51.412;5.436;2023-12-14T02:59:10;13.52;;;6.65;;
74044;SDS011;62389;51.412;5.436;2023-12-14T03:01:35;17.42;;;7.55;;
74044;SDS011;62389;51.412;5.436;2023-12-14T03:04:01;14.82;;;7.28;;
74044;SDS011;62389;51.412;5.436;2023-12-14T03:06:26;18.63;;;7.53;;
74044;SDS011;62389;51.412;5.436;2023-12-14T03:08:51;16.20;;;7.53;;
74044;SDS011;62389;51.412;5.436;2023-12-14T03:11:23;16.92;;;8.25;;
74044;SDS011;62389;51.412;5.436;2023-12-14T03:16:15;16.87;;;6.57;;
74044;SDS011;62389;51.412;5.436;2023-12-14T03:18:42;14.73;;;6.95;;
74044;SDS011;62389;51.412;5.436;2023-12-14T03:21:08;16.33;;;7.68;;
74044;SDS011;62389;51.412;5.436;2023-12-14T03:23:34;16.85;;;8.05;;
74044;SDS011;62389;51.412;5.436;2023-12-14T03:25:59;17.30;;;7.43;;
74044;SDS011;62389;51.412;5.436;2023-12-14T03:28:26;18.20;;;8.57;;
74044;SDS011;62389;51.412;5.436;2023-12-14T03:30:51;16.48;;;7.82;;
74044;SDS011;62389;51.412;5.436;2023-12-14T03:33:17;17.02;;;7.45;;
74044;SDS011;62389;51.412;5.436;2023-12-14T03:35:42;17.90;;;7.85;;
74044;SDS011;62389;51.412;5.436;2023-12-14T03:38:08;15.50;;;6.90;;
74044;SDS011;62389;51.412;5.436;2023-12-14T03:40:34;19.30;;;8.15;;
74044;SDS011;62389;51.412;5.436;2023-12-14T03:43:00;16.38;;;7.63;;
74044;SDS011;62389;51.412;5.436;2023-12-14T03:45:26;17.63;;;8.45;;
74044;SDS011;62389;51.412;5.436;2023-12-14T03:47:52;17.90;;;7.63;;
74044;SDS011;62389;51.412;5.436;2023-12-14T03:50:18;14.10;;;6.15;;
74044;SDS011;62389;51.412;5.436;2023-12-14T03:52:43;20.30;;;9.05;;
74044;SDS011;62389;51.412;5.436;2023-12-14T03:55:08;14.82;;;7.63;;
74044;SDS011;62389;51.412;5.436;2023-12-14T03:57:34;16.98;;;7.65;;
74044;SDS011;62389;51.412;5.436;2023-12-14T04:00:00;17.88;;;8.10;;
74044;SDS011;62389;51.412;5.436;2023-12-14T04:02:25;18.48;;;8.45;;
74044;SDS011;62389;51.412;5.436;2023-12-14T04:04:50;18.65;;;9.20;;
74044;SDS011;62389;51.412;5.436;2023-12-14T04:07:16;18.13;;;8.15;;
74044;SDS011;62389;51.412;5.436;2023-12-14T04:09:41;22.88;;;9.95;;
74044;SDS011;62389;51.412;5.436;2023-12-14T04:12:08;17.13;;;8.05;;
74044;SDS011;62389;51.412;5.436;2023-12-14T04:14:33;17.45;;;8.90;;
74044;SDS011;62389;51.412;5.436;2023-12-14T04:16:59;16.05;;;7.57;;
74044;SDS011;62389;51.412;5.436;2023-12-14T04:19:24;17.38;;;7.78;;
74044;SDS011;62389;51.412;5.436;2023-12-14T04:21:50;15.15;;;7.28;;
74044;SDS011;62389;51.412;5.436;2023-12-14T04:24:16;17.65;;;7.95;;
74044;SDS011;62389;51.412;5.436;2023-12-14T04:26:41;15.73;;;8.18;;
74044;SDS011;62389;51.412;5.436;2023-12-14T04:29:06;15.73;;;8.02;;
74044;SDS011;62389;51.412;5.436;2023-12-14T04:31:32;16.00;;;7.95;;
74044;SDS011;62389;51.412;5.436;2023-12-14T04:33:58;16.80;;;7.45;;
74044;SDS011;62389;51.412;5.436;2023-12-14T04:36:23;16.08;;;8.25;;
74044;SDS011;62389;51.412;5.436;2023-12-14T04:38:49;17.63;;;8.32;;
74044;SDS011;62389;51.412;5.436;2023-12-14T04:41:14;17.17;;;7.88;;
74044;SDS011;62389;51.412;5.436;2023-12-14T04:43:39;18.70;;;8.25;;
74044;SDS011;62389;51.412;5.436;2023-12-14T04:46:05;16.88;;;8.02;;
74044;SDS011;62389;51.412;5.436;2023-12-14T04:48:31;19.98;;;8.98;;
74044;SDS011;62389;51.412;5.436;2023-12-14T04:50:57;18.13;;;8.15;;
74044;SDS011;62389;51.412;5.436;2023-12-14T04:53:22;16.00;;;8.05;;
74044;SDS011;62389;51.412;5.436;2023-12-14T04:55:47;18.95;;;8.35;;
74044;SDS011;62389;51.412;5.436;2023-12-14T04:58:13;17.30;;;7.88;;
74044;SDS011;62389;51.412;5.436;2023-12-14T05:00:38;16.58;;;8.18;;
74044;SDS011;62389;51.412;5.436;2023-12-14T05:03:03;18.75;;;8.25;;
74044;SDS011;62389;51.412;5.436;2023-12-14T05:05:29;15.82;;;8.02;;
74044;SDS011;62389;51.412;5.436;2023-12-14T05:07:54;17.23;;;8.23;;
74044;SDS011;62389;51.412;5.436;2023-12-14T05:10:19;18.88;;;8.68;;
74044;SDS011;62389;51.412;5.436;2023-12-14T05:12:45;16.33;;;8.25;;
74044;SDS011;62389;51.412;5.436;2023-12-14T05:15:10;17.40;;;8.18;;
74044;SDS011;62389;51.412;5.436;2023-12-14T05:17:36;15.85;;;8.18;;
74044;SDS011;62389;51.412;5.436;2023-12-14T05:20:02;14.82;;;7.20;;
74044;SDS011;62389;51.412;5.436;2023-12-14T05:22:29;16.83;;;7.57;;
74044;SDS011;62389;51.412;5.436;2023-12-14T05:24:55;17.42;;;7.50;;
74044;SDS011;62389;51.412;5.436;2023-12-14T05:27:20;18.33;;;8.20;;
74044;SDS011;62389;51.412;5.436;2023-12-14T05:29:46;14.85;;;7.35;;
74044;SDS011;62389;51.412;5.436;2023-12-14T05:32:11;16.40;;;7.60;;
74044;SDS011;62389;51.412;5.436;2023-12-14T05:34:37;17.40;;;8.23;;
74044;SDS011;62389;51.412;5.436;2023-12-14T05:37:02;19.25;;;7.82;;
74044;SDS011;62389;51.412;5.436;2023-12-14T05:39:28;18.85;;;8.25;;
74044;SDS011;62389;51.412;5.436;2023-12-14T05:41:54;16.63;;;7.72;;
74044;SDS011;62389;51.412;5.436;2023-12-14T05:44:19;19.75;;;9.60;;
74044;SDS011;62389;51.412;5.436;2023-12-14T05:46:44;15.98;;;7.57;;
74044;SDS011;62389;51.412;5.436;2023-12-14T05:49:10;17.88;;;8.38;;
74044;SDS011;62389;51.412;5.436;2023-12-14T05:51:36;19.55;;;8.73;;
74044;SDS011;62389;51.412;5.436;2023-12-14T05:54:02;15.93;;;7.22;;
74044;SDS011;62389;51.412;5.436;2023-12-14T05:56:28;17.50;;;7.95;;
74044;SDS011;62389;51.412;5.436;2023-12-14T05:58:54;16.27;;;8.00;;
74044;SDS011;62389;51.412;5.436;2023-12-14T06:01:19;16.65;;;7.95;;
74044;SDS011;62389;51.412;5.436;2023-12-14T06:03:45;16.75;;;7.80;;
74044;SDS011;62389;51.412;5.436;2023-12-14T06:06:11;17.83;;;8.82;;
74044;SDS011;62389;51.412;5.436;2023-12-14T06:11:03;16.90;;;8.47;;
74044;SDS011;62389;51.412;5.436;2023-12-14T06:15:56;17.10;;;7.77;;
74044;SDS011;62389;51.412;5.436;2023-12-14T06:18:21;17.25;;;7.80;;
74044;SDS011;62389;51.412;5.436;2023-12-14T06:20:46;17.13;;;8.10;;
74044;SDS011;62389;51.412;5.436;2023-12-14T06:23:12;19.35;;;8.57;;
74044;SDS011;62389;51.412;5.436;2023-12-14T06:25:37;19.83;;;8.10;;
74044;SDS011;62389;51.412;5.436;2023-12-14T06:28:02;17.52;;;8.43;;
74044;SDS011;62389;51.412;5.436;2023-12-14T06:30:28;17.98;;;8.50;;
74044;SDS011;62389;51.412;5.436;2023-12-14T06:32:53;16.50;;;8.10;;
74044;SDS011;62389;51.412;5.436;2023-12-14T06:35:19;16.60;;;8.07;;
74044;SDS011;62389;51.412;5.436;2023-12-14T06:37:44;17.48;;;9.27;;
74044;SDS011;62389;51.412;5.436;2023-12-14T06:40:09;19.40;;;8.95;;
74044;SDS011;62389;51.412;5.436;2023-12-14T06:42:35;19.20;;;7.93;;
74044;SDS011;62389;51.412;5.436;2023-12-14T06:45:04;18.48;;;7.93;;
74044;SDS011;62389;51.412;5.436;2023-12-14T06:47:30;16.73;;;7.93;;
74044;SDS011;62389;51.412;5.436;2023-12-14T06:49:55;16.85;;;8.27;;
74044;SDS011;62389;51.412;5.436;2023-12-14T06:52:22;16.63;;;8.15;;
74044;SDS011;62389;51.412;5.436;2023-12-14T06:54:48;16.85;;;8.63;;
74044;SDS011;62389;51.412;5.436;2023-12-14T06:57:13;16.55;;;8.77;;
74044;SDS011;62389;51.412;5.436;2023-12-14T06:59:39;15.75;;;7.63;;
74044;SDS011;62389;51.412;5.436;2023-12-14T07:02:04;14.60;;;7.55;;
74044;SDS011;62389;51.412;5.436;2023-12-14T07:04:30;20.38;;;8.75;;
74044;SDS011;62389;51.412;5.436;2023-12-14T07:06:56;18.77;;;8.63;;
74044;SDS011;62389;51.412;5.436;2023-12-14T07:09:21;15.88;;;7.45;;
74044;SDS011;62389;51.412;5.436;2023-12-14T07:11:46;16.42;;;8.25;;
74044;SDS011;62389;51.412;5.436;2023-12-14T07:14:12;16.10;;;7.32;;
74044;SDS011;62389;51.412;5.436;2023-12-14T07:16:39;17.63;;;8.30;;
74044;SDS011;62389;51.412;5.436;2023-12-14T07:19:05;17.27;;;7.85;;
74044;SDS011;62389;51.412;5.436;2023-12-14T07:21:30;15.88;;;8.00;;
74044;SDS011;62389;51.412;5.436;2023-12-14T07:23:56;18.58;;;9.50;;
74044;SDS011;62389;51.412;5.436;2023-12-14T07:26:21;17.65;;;8.25;;
74044;SDS011;62389;51.412;5.436;2023-12-14T07:28:46;19.17;;;8.40;;
74044;SDS011;62389;51.412;5.436;2023-12-14T07:31:12;18.48;;;8.18;;
74044;SDS011;62389;51.412;5.436;2023-12-14T07:33:37;24.30;;;10.95;;
74044;SDS011;62389;51.412;5.436;2023-12-14T07:36:03;22.08;;;9.20;;
74044;SDS011;62389;51.412;5.436;2023-12-14T07:38:30;26.02;;;9.30;;
74044;SDS011;62389;51.412;5.436;2023-12-14T07:40:55;19.95;;;10.18;;
74044;SDS011;62389;51.412;5.436;2023-12-14T07:43:21;20.52;;;9.68;;
74044;SDS011;62389;51.412;5.436;2023-12-14T07:45:47;19.02;;;8.73;;
74044;SDS011;62389;51.412;5.436;2023-12-14T07:48:12;25.50;;;10.27;;
74044;SDS011;62389;51.412;5.436;2023-12-14T07:50:37;24.02;;;9.15;;
74044;SDS011;62389;51.412;5.436;2023-12-14T07:53:03;21.88;;;10.07;;
74044;SDS011;62389;51.412;5.436;2023-12-14T07:55:29;20.00;;;8.50;;
74044;SDS011;62389;51.412;5.436;2023-12-14T07:57:55;22.08;;;8.80;;
74044;SDS011;62389;51.412;5.436;2023-12-14T08:00:21;19.30;;;8.13;;
74044;SDS011;62389;51.412;5.436;2023-12-14T08:02:46;22.70;;;9.27;;
74044;SDS011;62389;51.412;5.436;2023-12-14T08:05:12;19.42;;;8.20;;
74044;SDS011;62389;51.412;5.436;2023-12-14T08:07:37;23.10;;;8.68;;
74044;SDS011;62389;51.412;5.436;2023-12-14T08:10:03;21.30;;;9.02;;
74044;SDS011;62389;51.412;5.436;2023-12-14T08:12:28;20.88;;;8.07;;
74044;SDS011;62389;51.412;5.436;2023-12-14T08:14:54;22.25;;;10.05;;
74044;SDS011;62389;51.412;5.436;2023-12-14T08:17:19;21.45;;;7.70;;
74044;SDS011;62389;51.412;5.436;2023-12-14T08:19:45;18.13;;;7.93;;
74044;SDS011;62389;51.412;5.436;2023-12-14T08:22:11;22.83;;;8.52;;
74044;SDS011;62389;51.412;5.436;2023-12-14T08:24:40;21.20;;;8.07;;
74044;SDS011;62389;51.412;5.436;2023-12-14T08:27:05;19.90;;;8.85;;
74044;SDS011;62389;51.412;5.436;2023-12-14T08:29:31;18.23;;;7.35;;
74044;SDS011;62389;51.412;5.436;2023-12-14T08:31:56;21.20;;;7.85;;
74044;SDS011;62389;51.412;5.436;2023-12-14T08:34:24;16.25;;;7.75;;
74044;SDS011;62389;51.412;5.436;2023-12-14T08:36:52;19.48;;;7.38;;
74044;SDS011;62389;51.412;5.436;2023-12-14T08:39:18;17.08;;;7.53;;
74044;SDS011;62389;51.412;5.436;2023-12-14T08:41:43;15.75;;;7.70;;
74044;SDS011;62389;51.412;5.436;2023-12-14T08:44:10;18.85;;;7.65;;
74044;SDS011;62389;51.412;5.436;2023-12-14T08:46:40;13.80;;;6.45;;
74044;SDS011;62389;51.412;5.436;2023-12-14T08:49:07;13.07;;;7.30;;
74044;SDS011;62389;51.412;5.436;2023-12-14T08:51:32;19.42;;;7.07;;
74044;SDS011;62389;51.412;5.436;2023-12-14T08:53:58;16.58;;;7.57;;
74044;SDS011;62389;51.412;5.436;2023-12-14T08:56:23;16.27;;;6.72;;
74044;SDS011;62389;51.412;5.436;2023-12-14T08:58:48;15.52;;;7.07;;
74044;SDS011;62389;51.412;5.436;2023-12-14T09:01:19;17.10;;;7.50;;
74044;SDS011;62389;51.412;5.436;2023-12-14T09:03:46;17.35;;;7.80;;
74044;SDS011;62389;51.412;5.436;2023-12-14T09:06:11;13.65;;;6.97;;
74044;SDS011;62389;51.412;5.436;2023-12-14T09:08:36;16.38;;;7.70;;
74044;SDS011;62389;51.412;5.436;2023-12-14T09:11:02;14.90;;;7.00;;
74044;SDS011;62389;51.412;5.436;2023-12-14T09:13:27;15.63;;;7.82;;
74044;SDS011;62389;51.412;5.436;2023-12-14T09:15:53;19.95;;;9.20;;
74044;SDS011;62389;51.412;5.436;2023-12-14T09:18:19;16.85;;;7.65;;
74044;SDS011;62389;51.412;5.436;2023-12-14T09:20:46;13.68;;;6.10;;
74044;SDS011;62389;51.412;5.436;2023-12-14T09:23:11;16.98;;;7.00;;
74044;SDS011;62389;51.412;5.436;2023-12-14T09:25:36;14.57;;;7.22;;
74044;SDS011;62389;51.412;5.436;2023-12-14T09:28:02;15.75;;;7.05;;
74044;SDS011;62389;51.412;5.436;2023-12-14T09:30:27;14.35;;;6.78;;
74044;SDS011;62389;51.412;5.436;2023-12-14T09:32:52;12.05;;;6.30;;
74044;SDS011;62389;51.412;5.436;2023-12-14T09:35:18;12.32;;;6.75;;
74044;SDS011;62389;51.412;5.436;2023-12-14T09:37:43;13.20;;;6.70;;
74044;SDS011;62389;51.412;5.436;2023-12-14T09:40:09;19.88;;;6.78;;
74044;SDS011;62389;51.412;5.436;2023-12-14T09:42:37;13.93;;;6.47;;
74044;SDS011;62389;51.412;5.436;2023-12-14T09:47:31;13.82;;;6.65;;
74044;SDS011;62389;51.412;5.436;2023-12-14T09:49:56;13.70;;;7.07;;
74044;SDS011;62389;51.412;5.436;2023-12-14T09:52:23;11.57;;;5.80;;
74044;SDS011;62389;51.412;5.436;2023-12-14T09:54:49;11.73;;;6.00;;
74044;SDS011;62389;51.412;5.436;2023-12-14T09:57:14;16.10;;;7.38;;
74044;SDS011;62389;51.412;5.436;2023-12-14T09:59:40;14.40;;;7.00;;
74044;SDS011;62389;51.412;5.436;2023-12-14T10:02:10;17.13;;;7.18;;
74044;SDS011;62389;51.412;5.436;2023-12-14T10:04:37;11.73;;;5.78;;
74044;SDS011;62389;51.412;5.436;2023-12-14T10:07:02;12.82;;;6.70;;
74044;SDS011;62389;51.412;5.436;2023-12-14T10:09:32;10.43;;;6.00;;
74044;SDS011;62389;51.412;5.436;2023-12-14T10:12:07;11.52;;;5.88;;
74044;SDS011;62389;51.412;5.436;2023-12-14T10:14:34;12.65;;;6.80;;
74044;SDS011;62389;51.412;5.436;2023-12-14T10:17:19;10.55;;;5.82;;
74044;SDS011;62389;51.412;5.436;2023-12-14T10:19:47;12.05;;;6.40;;
74044;SDS011;62389;51.412;5.436;2023-12-14T10:22:14;12.70;;;5.97;;
74044;SDS011;62389;51.412;5.436;2023-12-14T10:27:10;12.95;;;6.05;;
74044;SDS011;62389;51.412;5.436;2023-12-14T10:29:39;11.57;;;5.82;;
74044;SDS011;62389;51.412;5.436;2023-12-14T10:32:04;13.68;;;5.82;;
74044;SDS011;62389;51.412;5.436;2023-12-14T10:34:32;10.18;;;5.38;;
74044;SDS011;62389;51.412;5.436;2023-12-14T10:37:00;13.55;;;6.47;;
74044;SDS011;62389;51.412;5.436;2023-12-14T10:39:26;11.05;;;6.38;;
74044;SDS011;62389;51.412;5.436;2023-12-14T10:41:52;12.90;;;6.43;;
74044;SDS011;62389;51.412;5.436;2023-12-14T10:44:21;10.43;;;5.65;;
74044;SDS011;62389;51.412;5.436;2023-12-14T10:46:55;15.25;;;7.78;;
74044;SDS011;62389;51.412;5.436;2023-12-14T10:49:25;13.95;;;6.78;;
74044;SDS011;62389;51.412;5.436;2023-12-14T10:51:52;13.75;;;6.15;;
74044;SDS011;62389;51.412;5.436;2023-12-14T10:54:20;13.50;;;6.90;;
74044;SDS011;62389;51.412;5.436;2023-12-14T10:56:47;11.00;;;6.30;;
74044;SDS011;62389;51.412;5.436;2023-12-14T10:59:14;11.93;;;6.57;;
74044;SDS011;62389;51.412;5.436;2023-12-14T11:01:42;11.52;;;5.80;;
74044;SDS011;62389;51.412;5.436;2023-12-14T11:04:07;16.35;;;6.30;;
74044;SDS011;62389;51.412;5.436;2023-12-14T11:06:38;15.48;;;7.82;;
74044;SDS011;62389;51.412;5.436;2023-12-14T11:09:05;12.27;;;6.15;;
74044;SDS011;62389;51.412;5.436;2023-12-14T11:14:07;13.77;;;6.22;;
74044;SDS011;62389;51.412;5.436;2023-12-14T11:16:35;11.65;;;5.78;;
74044;SDS011;62389;51.412;5.436;2023-12-14T11:21:46;10.85;;;5.63;;
74044;SDS011;62389;51.412;5.436;2023-12-14T11:24:12;11.65;;;5.32;;
74044;SDS011;62389;51.412;5.436;2023-12-14T11:26:37;10.60;;;5.65;;
74044;SDS011;62389;51.412;5.436;2023-12-14T11:29:03;12.07;;;6.15;;
74044;SDS011;62389;51.412;5.436;2023-12-14T11:31:29;11.65;;;5.72;;
74044;SDS011;62389;51.412;5.436;2023-12-14T11:33:55;12.50;;;5.90;;
74044;SDS011;62389;51.412;5.436;2023-12-14T11:36:21;11.35;;;5.70;;
74044;SDS011;62389;51.412;5.436;2023-12-14T11:38:48;11.63;;;5.53;;
74044;SDS011;62389;51.412;5.436;2023-12-14T11:41:13;12.95;;;6.18;;
74044;SDS011;62389;51.412;5.436;2023-12-14T11:43:39;12.15;;;6.35;;
74044;SDS011;62389;51.412;5.436;2023-12-14T11:46:06;13.90;;;6.70;;
74044;SDS011;62389;51.412;5.436;2023-12-14T11:48:31;11.85;;;5.85;;
74044;SDS011;62389;51.412;5.436;2023-12-14T11:50:57;12.73;;;5.88;;
74044;SDS011;62389;51.412;5.436;2023-12-14T11:53:22;10.60;;;6.05;;
74044;SDS011;62389;51.412;5.436;2023-12-14T11:55:48;11.98;;;5.82;;
74044;SDS011;62389;51.412;5.436;2023-12-14T11:58:13;8.43;;;4.68;;
74044;SDS011;62389;51.412;5.436;2023-12-14T12:00:41;10.85;;;5.20;;
74044;SDS011;62389;51.412;5.436;2023-12-14T12:03:13;10.55;;;5.40;;
74044;SDS011;62389;51.412;5.436;2023-12-14T12:05:45;11.38;;;5.80;;
74044;SDS011;62389;51.412;5.436;2023-12-14T12:08:12;10.02;;;5.85;;
74044;SDS011;62389;51.412;5.436;2023-12-14T12:10:38;9.65;;;5.10;;
74044;SDS011;62389;51.412;5.436;2023-12-14T12:13:06;9.73;;;5.13;;
74044;SDS011;62389;51.412;5.436;2023-12-14T12:15:42;10.55;;;5.50;;
74044;SDS011;62389;51.412;5.436;2023-12-14T12:18:08;10.77;;;5.80;;
74044;SDS011;62389;51.412;5.436;2023-12-14T12:20:35;9.95;;;4.80;;
74044;SDS011;62389;51.412;5.436;2023-12-14T12:23:01;9.27;;;4.70;;
74044;SDS011;62389;51.412;5.436;2023-12-14T12:25:28;11.05;;;4.72;;
74044;SDS011;62389;51.412;5.436;2023-12-14T12:27:54;12.00;;;5.82;;
74044;SDS011;62389;51.412;5.436;2023-12-14T12:30:23;9.85;;;5.25;;
74044;SDS011;62389;51.412;5.436;2023-12-14T12:32:48;11.63;;;5.47;;
74044;SDS011;62389;51.412;5.436;2023-12-14T12:35:16;13.57;;;6.75;;
74044;SDS011;62389;51.412;5.436;2023-12-14T12:37:42;11.57;;;5.85;;
74044;SDS011;62389;51.412;5.436;2023-12-14T12:40:08;10.50;;;5.25;;
74044;SDS011;62389;51.412;5.436;2023-12-14T12:42:34;10.55;;;6.45;;
74044;SDS011;62389;51.412;5.436;2023-12-14T12:45:00;9.43;;;4.88;;
74044;SDS011;62389;51.412;5.436;2023-12-14T12:47:25;9.55;;;4.32;;
74044;SDS011;62389;51.412;5.436;2023-12-14T12:49:51;7.93;;;5.00;;
74044;SDS011;62389;51.412;5.436;2023-12-14T12:52:16;10.27;;;5.47;;
74044;SDS011;62389;51.412;5.436;2023-12-14T12:54:42;9.75;;;4.65;;
74044;SDS011;62389;51.412;5.436;2023-12-14T12:57:07;9.55;;;4.95;;
74044;SDS011;62389;51.412;5.436;2023-12-14T12:59:32;10.15;;;5.03;;
74044;SDS011;62389;51.412;5.436;2023-12-14T13:01:58;10.93;;;5.15;;
74044;SDS011;62389;51.412;5.436;2023-12-14T13:04:24;10.02;;;4.80;;
74044;SDS011;62389;51.412;5.436;2023-12-14T13:06:51;9.73;;;5.20;;
74044;SDS011;62389;51.412;5.436;2023-12-14T13:09:17;9.95;;;5.70;;
74044;SDS011;62389;51.412;5.436;2023-12-14T13:11:44;10.40;;;5.57;;
74044;SDS011;62389;51.412;5.436;2023-12-14T13:14:10;10.13;;;5.28;;
74044;SDS011;62389;51.412;5.436;2023-12-14T13:16:35;8.88;;;5.50;;
74044;SDS011;62389;51.412;5.436;2023-12-14T13:19:02;10.95;;;5.10;;
74044;SDS011;62389;51.412;5.436;2023-12-14T13:21:28;10.65;;;5.43;;
74044;SDS011;62389;51.412;5.436;2023-12-14T13:23:54;8.75;;;4.82;;
74044;SDS011;62389;51.412;5.436;2023-12-14T13:26:21;10.60;;;4.97;;
74044;SDS011;62389;51.412;5.436;2023-12-14T13:28:47;10.85;;;5.05;;
74044;SDS011;62389;51.412;5.436;2023-12-14T13:31:12;9.85;;;5.57;;
74044;SDS011;62389;51.412;5.436;2023-12-14T13:33:37;10.40;;;5.63;;
74044;SDS011;62389;51.412;5.436;2023-12-14T13:36:03;10.35;;;5.70;;
74044;SDS011;62389;51.412;5.436;2023-12-14T13:38:28;10.52;;;5.47;;
74044;SDS011;62389;51.412;5.436;2023-12-14T13:40:54;12.82;;;5.47;;
74044;SDS011;62389;51.412;5.436;2023-12-14T13:43:19;10.32;;;5.63;;
74044;SDS011;62389;51.412;5.436;2023-12-14T13:45:45;11.30;;;6.00;;
74044;SDS011;62389;51.412;5.436;2023-12-14T13:48:10;10.57;;;5.00;;
74044;SDS011;62389;51.412;5.436;2023-12-14T13:50:36;11.00;;;5.72;;
74044;SDS011;62389;51.412;5.436;2023-12-14T13:53:01;11.27;;;6.15;;
74044;SDS011;62389;51.412;5.436;2023-12-14T13:55:27;12.15;;;5.68;;
74044;SDS011;62389;51.412;5.436;2023-12-14T13:57:53;11.20;;;5.55;;
74044;SDS011;62389;51.412;5.436;2023-12-14T14:00:18;13.00;;;6.32;;
74044;SDS011;62389;51.412;5.436;2023-12-14T14:02:44;13.82;;;5.93;;
74044;SDS011;62389;51.412;5.436;2023-12-14T14:05:10;12.50;;;6.50;;
74044;SDS011;62389;51.412;5.436;2023-12-14T14:07:35;12.10;;;5.60;;
74044;SDS011;62389;51.412;5.436;2023-12-14T14:10:01;11.52;;;6.13;;
74044;SDS011;62389;51.412;5.436;2023-12-14T14:12:26;13.90;;;6.03;;
74044;SDS011;62389;51.412;5.436;2023-12-14T14:14:51;11.40;;;6.30;;
74044;SDS011;62389;51.412;5.436;2023-12-14T14:17:17;14.23;;;6.28;;
74044;SDS011;62389;51.412;5.436;2023-12-14T14:19:42;11.77;;;6.07;;
74044;SDS011;62389;51.412;5.436;2023-12-14T14:22:08;12.23;;;7.32;;
74044;SDS011;62389;51.412;5.436;2023-12-14T14:24:33;12.15;;;6.15;;
74044;SDS011;62389;51.412;5.436;2023-12-14T14:26:59;11.73;;;5.53;;
74044;SDS011;62389;51.412;5.436;2023-12-14T14:29:24;12.02;;;6.57;;
74044;SDS011;62389;51.412;5.436;2023-12-14T14:31:50;15.18;;;6.00;;
74044;SDS011;62389;51.412;5.436;2023-12-14T14:34:15;11.98;;;6.68;;
74044;SDS011;62389;51.412;5.436;2023-12-14T14:36:40;12.18;;;6.10;;
74044;SDS011;62389;51.412;5.436;2023-12-14T14:39:06;11.50;;;5.70;;
74044;SDS011;62389;51.412;5.436;2023-12-14T14:41:33;14.10;;;6.75;;
74044;SDS011;62389;51.412;5.436;2023-12-14T14:43:58;13.30;;;7.43;;
74044;SDS011;62389;51.412;5.436;2023-12-14T14:46:23;14.75;;;6.38;;